createdAt,value
2019-03-15T00:01:44.960Z,9.95
2019-03-15T00:04:12.255Z,9.68
2019-03-15T00:06:39.605Z,9.70
2019-03-15T00:09:07.587Z,9.60
2019-03-15T00:11:34.866Z,9.60
2019-03-15T00:14:02.156Z,9.50
2019-03-15T00:16:29.458Z,8.70
2019-03-15T00:18:56.885Z,9.45
2019-03-15T00:21:24.275Z,9.28
2019-03-15T00:23:51.561Z,9.50
2019-03-15T00:26:18.828Z,9.65
2019-03-15T00:28:46.128Z,9.78
2019-03-15T00:31:13.469Z,9.35
2019-03-15T00:33:40.789Z,9.08
2019-03-15T00:36:08.067Z,9.00
2019-03-15T00:38:35.426Z,9.23
2019-03-15T00:41:02.733Z,9.10
2019-03-15T00:43:30.101Z,8.40
2019-03-15T00:45:57.378Z,8.85
2019-03-15T00:48:24.697Z,8.73
2019-03-15T00:50:51.985Z,8.48
2019-03-15T00:53:19.253Z,8.30
2019-03-15T00:55:46.543Z,8.28
2019-03-15T00:58:13.827Z,8.43
2019-03-15T01:00:41.145Z,7.70
2019-03-15T01:03:08.444Z,8.30
2019-03-15T01:05:35.802Z,8.40
2019-03-15T01:08:03.091Z,8.40
2019-03-15T01:10:31.403Z,8.33
2019-03-15T01:12:58.788Z,8.43
2019-03-15T01:15:26.080Z,7.97
2019-03-15T01:17:53.363Z,8.83
2019-03-15T01:20:20.653Z,8.48
2019-03-15T01:22:47.938Z,8.08
2019-03-15T01:25:15.751Z,8.10
2019-03-15T01:27:43.033Z,8.10
2019-03-15T01:30:11.596Z,8.43
2019-03-15T01:32:38.951Z,8.13
2019-03-15T01:35:07.119Z,8.18
2019-03-15T01:37:34.413Z,8.23
2019-03-15T01:40:01.706Z,7.30
2019-03-15T01:42:28.994Z,7.75
2019-03-15T01:44:58.678Z,7.75
2019-03-15T01:47:25.988Z,7.60
2019-03-15T01:49:53.286Z,7.95
2019-03-15T01:52:20.651Z,7.05
2019-03-15T01:54:48.048Z,7.42
2019-03-15T01:57:15.422Z,8.08
2019-03-15T01:59:42.765Z,8.23
2019-03-15T02:02:10.059Z,7.67
2019-03-15T02:04:37.333Z,7.33
2019-03-15T02:07:04.639Z,7.62
2019-03-15T02:09:31.977Z,7.85
2019-03-15T02:11:59.269Z,7.70
2019-03-15T02:14:27.631Z,7.42
2019-03-15T02:16:55.019Z,7.80
2019-03-15T02:19:22.566Z,7.15
2019-03-15T02:21:49.854Z,7.55
2019-03-15T02:24:17.177Z,7.37
2019-03-15T02:26:44.465Z,6.90
2019-03-15T02:29:11.810Z,7.10
2019-03-15T02:31:39.107Z,7.37
2019-03-15T02:34:06.463Z,7.60
2019-03-15T02:36:33.823Z,7.80
2019-03-15T02:39:02.925Z,7.42
2019-03-15T02:41:30.377Z,7.60
2019-03-15T02:43:57.939Z,7.17
2019-03-15T02:46:25.842Z,7.20
2019-03-15T02:48:53.516Z,7.67
2019-03-15T02:51:20.793Z,7.12
2019-03-15T02:53:48.151Z,7.60
2019-03-15T02:56:15.442Z,7.67
2019-03-15T02:58:42.787Z,7.10
2019-03-15T03:01:10.142Z,6.90
2019-03-15T03:03:37.456Z,6.45
2019-03-15T03:06:04.741Z,7.50
2019-03-15T03:08:32.094Z,7.12
2019-03-15T03:11:02.448Z,6.90
2019-03-15T03:13:29.721Z,7.08
2019-03-15T03:15:57.013Z,7.22
2019-03-15T03:18:24.303Z,7.00
2019-03-15T03:20:51.699Z,6.78
2019-03-15T03:23:19.008Z,7.25
2019-03-15T03:25:46.374Z,6.75
2019-03-15T03:28:13.759Z,7.03
2019-03-15T03:30:41.162Z,6.53
2019-03-15T03:33:08.516Z,6.60
2019-03-15T03:35:35.854Z,6.50
2019-03-15T03:38:03.154Z,6.53
2019-03-15T03:40:30.640Z,6.92
2019-03-15T03:42:58.209Z,6.37
2019-03-15T03:45:25.564Z,6.45
2019-03-15T03:47:52.901Z,6.37
2019-03-15T03:50:20.196Z,6.78
2019-03-15T03:52:47.567Z,6.85
2019-03-15T03:55:14.856Z,6.65
2019-03-15T03:57:42.223Z,5.87
2019-03-15T04:00:11.110Z,6.35
2019-03-15T04:02:38.562Z,6.28
2019-03-15T04:05:06.130Z,6.33
2019-03-15T04:07:33.411Z,6.40
2019-03-15T04:10:00.696Z,5.87
2019-03-15T04:12:28.078Z,5.90
2019-03-15T04:14:55.355Z,6.17
2019-03-15T04:17:22.637Z,6.15
2019-03-15T04:19:50.511Z,6.35
2019-03-15T04:22:18.176Z,5.58
2019-03-15T04:24:45.463Z,5.58
2019-03-15T04:27:12.737Z,5.65
2019-03-15T04:29:40.041Z,5.90
2019-03-15T04:32:07.337Z,6.05
2019-03-15T04:34:34.678Z,5.55
2019-03-15T04:37:02.022Z,5.50
2019-03-15T04:39:29.362Z,5.15
2019-03-15T04:41:56.647Z,6.05
2019-03-15T04:44:23.971Z,5.80
2019-03-15T04:46:51.255Z,5.85
2019-03-15T04:49:18.536Z,5.25
2019-03-15T04:51:45.815Z,5.47
2019-03-15T04:54:13.095Z,5.50
2019-03-15T04:56:40.372Z,5.20
2019-03-15T04:59:07.654Z,5.55
2019-03-15T05:01:34.974Z,5.47
2019-03-15T05:04:02.255Z,5.83
2019-03-15T05:06:29.547Z,5.58
2019-03-15T05:08:56.836Z,5.80
2019-03-15T05:11:24.171Z,4.95
2019-03-15T05:13:51.488Z,4.97
2019-03-15T05:16:18.766Z,5.50
2019-03-15T05:18:46.063Z,5.47
2019-03-15T05:21:13.374Z,5.53
2019-03-15T05:23:40.652Z,5.12
2019-03-15T05:26:08.125Z,4.87
2019-03-15T05:28:35.407Z,5.28
2019-03-15T05:31:02.758Z,4.80
2019-03-15T05:33:30.071Z,4.83
2019-03-15T05:35:57.435Z,5.10
2019-03-15T05:38:24.723Z,4.72
2019-03-15T05:40:52.697Z,5.00
2019-03-15T05:43:20.045Z,5.00
2019-03-15T05:45:47.432Z,5.05
2019-03-15T05:48:14.805Z,4.90
2019-03-15T05:50:42.123Z,4.83
2019-03-15T05:53:09.534Z,4.95
2019-03-15T05:55:36.859Z,4.90
2019-03-15T05:58:04.148Z,4.65
2019-03-15T06:00:31.430Z,5.15
2019-03-15T06:02:58.706Z,4.00
2019-03-15T06:05:26.002Z,4.62
2019-03-15T06:07:53.339Z,4.60
2019-03-15T06:10:20.634Z,4.67
2019-03-15T06:12:48.005Z,4.45
2019-03-15T06:15:15.287Z,4.60
2019-03-15T06:17:42.771Z,4.72
2019-03-15T06:20:11.864Z,4.37
2019-03-15T06:22:39.218Z,4.70
2019-03-15T06:25:07.481Z,4.45
2019-03-15T06:27:34.834Z,4.37
2019-03-15T06:30:02.204Z,4.80
2019-03-15T06:32:29.547Z,4.15
2019-03-15T06:34:56.841Z,4.15
2019-03-15T06:37:24.213Z,4.28
2019-03-15T06:39:51.498Z,4.45
2019-03-15T06:42:18.852Z,4.05
2019-03-15T06:44:57.394Z,4.53
2019-03-15T06:47:15.232Z,4.17
2019-03-15T06:49:42.524Z,4.05
2019-03-15T06:52:09.874Z,4.12
2019-03-15T06:54:37.185Z,4.08
2019-03-15T06:57:04.481Z,4.10
2019-03-15T06:59:31.766Z,4.10
2019-03-15T07:01:59.036Z,4.22
2019-03-15T07:04:26.394Z,3.92
2019-03-15T07:06:53.747Z,17.48
2019-03-15T07:09:21.090Z,55.00
2019-03-15T07:11:48.585Z,72.65
2019-03-15T07:14:16.028Z,52.10
2019-03-15T07:16:43.584Z,33.83
2019-03-15T07:19:10.996Z,29.05
2019-03-15T07:21:38.337Z,30.60
2019-03-15T07:24:05.635Z,27.15
2019-03-15T07:26:33.380Z,27.70
2019-03-15T07:29:00.682Z,25.32
2019-03-15T07:31:28.050Z,25.65
2019-03-15T07:33:55.362Z,18.52
2019-03-15T07:36:22.660Z,16.02
2019-03-15T07:38:51.031Z,13.98
2019-03-15T07:41:18.322Z,12.63
2019-03-15T07:43:45.739Z,10.43
2019-03-15T07:46:13.220Z,10.15
2019-03-15T07:48:40.576Z,9.18
2019-03-15T07:51:07.922Z,9.20
2019-03-15T07:53:35.643Z,8.33
2019-03-15T07:56:03.082Z,7.03
2019-03-15T07:58:30.352Z,7.15
2019-03-15T08:00:57.649Z,7.42
2019-03-15T08:03:24.925Z,5.80
2019-03-15T08:05:52.217Z,6.05
2019-03-15T08:08:19.512Z,5.50
2019-03-15T08:10:46.811Z,5.90
2019-03-15T08:13:14.180Z,5.95
2019-03-15T08:15:41.533Z,4.95
2019-03-15T08:18:09.201Z,5.08
2019-03-15T08:20:36.613Z,4.33
2019-03-15T08:23:03.891Z,4.58
2019-03-15T08:25:31.181Z,4.45
2019-03-15T08:27:58.475Z,4.50
2019-03-15T08:30:25.766Z,4.30
2019-03-15T08:32:53.123Z,3.85
2019-03-15T08:35:20.404Z,4.08
2019-03-15T08:37:48.069Z,3.87
2019-03-15T08:40:15.364Z,4.28
2019-03-15T08:42:42.721Z,3.92
2019-03-15T08:45:22.081Z,3.83
2019-03-15T08:47:49.433Z,4.05
2019-03-15T08:50:20.144Z,3.95
2019-03-15T08:52:47.484Z,3.72
2019-03-15T08:55:14.849Z,3.95
2019-03-15T08:57:42.195Z,3.67
2019-03-15T09:00:13.834Z,3.70
2019-03-15T09:02:41.171Z,3.77
2019-03-15T09:05:09.810Z,3.70
2019-03-15T09:07:37.101Z,3.50
2019-03-15T09:10:06.256Z,3.62
2019-03-15T09:12:33.619Z,3.60
2019-03-15T09:15:00.977Z,3.30
2019-03-15T09:17:28.342Z,3.92
2019-03-15T09:19:55.621Z,3.72
2019-03-15T09:22:22.920Z,3.55
2019-03-15T09:24:50.262Z,3.50
2019-03-15T09:27:17.649Z,3.92
2019-03-15T09:29:44.927Z,4.17
2019-03-15T09:32:12.207Z,4.20
2019-03-15T09:34:39.499Z,3.92
2019-03-15T09:37:06.798Z,4.15
2019-03-15T09:39:34.142Z,3.80
2019-03-15T09:42:01.425Z,4.25
2019-03-15T09:44:28.738Z,4.03
2019-03-15T09:46:56.103Z,3.90
2019-03-15T09:49:23.368Z,4.10
2019-03-15T09:51:50.981Z,3.60
2019-03-15T09:54:18.314Z,3.42
2019-03-15T09:56:45.598Z,3.47
2019-03-15T09:59:12.870Z,3.60
2019-03-15T10:01:40.157Z,3.10
2019-03-15T10:04:07.440Z,3.20
2019-03-15T10:06:34.718Z,2.83
2019-03-15T10:09:02.011Z,3.08
2019-03-15T10:11:29.357Z,2.90
2019-03-15T10:13:56.647Z,2.75
2019-03-15T10:16:23.999Z,2.70
2019-03-15T10:18:51.302Z,2.52
2019-03-15T10:21:18.702Z,2.42
2019-03-15T10:23:46.037Z,3.00
2019-03-15T10:26:14.987Z,2.87
2019-03-15T10:28:42.328Z,2.98
2019-03-15T10:31:09.592Z,2.72
2019-03-15T10:33:49.613Z,3.30
2019-03-15T10:36:05.899Z,3.10
2019-03-15T10:38:33.289Z,3.75
2019-03-15T10:41:01.378Z,3.40
2019-03-15T10:43:28.923Z,3.62
2019-03-15T10:45:56.207Z,3.72
2019-03-15T10:48:25.385Z,3.75
2019-03-15T10:50:52.539Z,4.00
2019-03-15T10:53:19.950Z,4.10
2019-03-15T10:55:59.477Z,4.33
2019-03-15T10:58:16.287Z,4.25
2019-03-15T11:00:43.565Z,3.83
2019-03-15T11:03:13.097Z,4.70
2019-03-15T11:05:39.887Z,3.98
2019-03-15T11:08:07.170Z,4.15
2019-03-15T11:10:34.479Z,4.45
2019-03-15T11:13:01.753Z,4.37
2019-03-15T11:15:29.182Z,4.08
2019-03-15T11:17:56.563Z,3.60
2019-03-15T11:20:23.905Z,3.47
2019-03-15T11:22:51.215Z,3.47
2019-03-15T11:25:18.497Z,3.60
2019-03-15T11:27:45.768Z,3.70
2019-03-15T11:30:13.548Z,3.20
2019-03-15T11:32:41.087Z,3.50
2019-03-15T11:35:09.048Z,3.37
2019-03-15T11:37:36.393Z,3.40
2019-03-15T11:40:05.580Z,3.87
2019-03-15T11:42:32.871Z,3.25
2019-03-15T11:45:00.453Z,3.10
2019-03-15T11:47:27.984Z,3.10
2019-03-15T11:49:55.804Z,2.98
2019-03-15T11:52:23.274Z,2.85
2019-03-15T11:54:50.564Z,2.80
2019-03-15T11:57:17.874Z,2.80
2019-03-15T11:59:45.264Z,2.60
2019-03-15T12:02:12.613Z,2.45
2019-03-15T12:04:39.977Z,2.25
2019-03-15T12:07:10.240Z,2.40
2019-03-15T12:09:36.403Z,2.33
2019-03-15T12:12:03.987Z,2.60
2019-03-15T12:14:40.774Z,2.50
2019-03-15T12:17:00.362Z,2.50
2019-03-15T12:19:27.651Z,2.40
2019-03-15T12:22:05.695Z,2.75
2019-03-15T12:24:23.958Z,2.30
2019-03-15T12:26:51.298Z,2.58
2019-03-15T12:29:18.593Z,2.52
2019-03-15T12:31:45.959Z,2.50
2019-03-15T12:34:13.368Z,2.50
2019-03-15T12:36:40.636Z,2.30
2019-03-15T12:39:08.239Z,2.50
2019-03-15T12:41:35.602Z,2.42
2019-03-15T12:44:02.887Z,2.47
2019-03-15T12:46:30.422Z,2.45
2019-03-15T12:48:57.783Z,2.17
2019-03-15T12:51:32.023Z,2.17
2019-03-15T12:53:54.092Z,2.50
2019-03-15T12:56:21.371Z,2.50
2019-03-15T12:58:48.656Z,2.47
2019-03-15T13:01:15.958Z,2.58
2019-03-15T13:03:43.305Z,2.30
2019-03-15T13:06:10.656Z,2.75
2019-03-15T13:08:37.934Z,2.52
2019-03-15T13:11:05.251Z,2.30
2019-03-15T13:13:32.544Z,2.60
2019-03-15T13:16:00.139Z,2.20
2019-03-15T13:18:27.442Z,2.17
2019-03-15T13:20:54.794Z,2.40
2019-03-15T13:23:22.099Z,2.30
2019-03-15T13:25:49.402Z,2.00
2019-03-15T13:28:16.691Z,2.00
2019-03-15T13:30:44.048Z,2.22
2019-03-15T13:33:20.475Z,1.92
2019-03-15T13:35:40.410Z,2.33
2019-03-15T13:38:07.884Z,2.10
2019-03-15T13:40:35.165Z,2.27
2019-03-15T13:43:02.483Z,2.22
2019-03-15T13:45:29.787Z,2.17
2019-03-15T13:47:57.129Z,2.33
2019-03-15T13:50:24.563Z,2.50
2019-03-15T13:52:51.920Z,2.47
2019-03-15T13:55:19.260Z,2.40
2019-03-15T13:57:46.542Z,2.40
2019-03-15T14:00:14.607Z,2.40
2019-03-15T14:02:41.970Z,2.37
2019-03-15T14:05:09.575Z,1.77
2019-03-15T14:07:36.895Z,1.87
2019-03-15T14:10:06.040Z,1.92
2019-03-15T14:12:33.331Z,1.80
2019-03-15T14:15:00.621Z,1.98
2019-03-15T14:17:27.965Z,1.77
2019-03-15T14:19:55.258Z,1.67
2019-03-15T14:22:22.545Z,1.98
2019-03-15T14:24:49.913Z,2.40
2019-03-15T14:27:17.204Z,2.12
2019-03-15T14:29:44.546Z,2.25
2019-03-15T14:32:11.874Z,2.55
2019-03-15T14:34:39.216Z,2.50
2019-03-15T14:37:09.016Z,2.50
2019-03-15T14:39:35.746Z,2.67
2019-03-15T14:42:03.292Z,2.52
2019-03-15T14:44:30.628Z,3.12
2019-03-15T14:46:57.963Z,2.65
2019-03-15T14:49:25.309Z,2.72
2019-03-15T14:51:52.593Z,2.70
2019-03-15T14:54:19.929Z,3.20
2019-03-15T14:56:47.209Z,3.00
2019-03-15T14:59:14.539Z,3.00
2019-03-15T15:01:41.883Z,3.10
2019-03-15T15:04:09.165Z,3.15
2019-03-15T15:06:36.436Z,3.25
2019-03-15T15:09:05.009Z,3.10
2019-03-15T15:11:32.291Z,3.10
2019-03-15T15:13:59.579Z,3.17
2019-03-15T15:16:26.934Z,3.02
2019-03-15T15:18:54.216Z,2.90
2019-03-15T15:21:21.746Z,3.30
2019-03-15T15:23:49.131Z,2.80
2019-03-15T15:26:16.488Z,3.17
2019-03-15T15:28:43.773Z,3.12
2019-03-15T15:31:11.169Z,3.12
2019-03-15T15:33:38.452Z,3.20
2019-03-15T15:36:05.755Z,2.83
2019-03-15T15:38:33.055Z,3.20
2019-03-15T15:41:00.400Z,3.25
2019-03-15T15:43:27.678Z,2.98
2019-03-15T15:45:54.992Z,3.10
2019-03-15T15:48:22.322Z,2.90
2019-03-15T15:50:49.596Z,2.92
2019-03-15T15:53:16.918Z,2.90
2019-03-15T15:55:44.203Z,3.10
2019-03-15T15:58:17.717Z,3.00
2019-03-15T16:00:40.613Z,2.67
2019-03-15T16:03:07.961Z,2.70
2019-03-15T16:05:35.254Z,2.42
2019-03-15T16:08:02.665Z,2.58
2019-03-15T16:10:30.037Z,2.47
2019-03-15T16:12:57.476Z,3.05
2019-03-15T16:15:24.818Z,2.70
2019-03-15T16:17:52.225Z,2.45
2019-03-15T16:20:19.495Z,3.25
2019-03-15T16:22:46.763Z,3.08
2019-03-15T16:25:14.070Z,2.77
2019-03-15T16:27:41.461Z,3.00
2019-03-15T16:30:15.451Z,3.27
2019-03-15T16:32:42.741Z,3.77
2019-03-15T16:35:11.278Z,3.20
2019-03-15T16:37:38.686Z,3.30
2019-03-15T16:40:07.439Z,3.22
2019-03-15T16:42:34.746Z,3.10
2019-03-15T16:45:02.067Z,3.27
2019-03-15T16:47:29.418Z,3.10
2019-03-15T16:49:56.703Z,3.70
2019-03-15T16:52:24.066Z,4.08
2019-03-15T16:54:51.351Z,4.10
2019-03-15T16:57:18.634Z,4.35
2019-03-15T16:59:45.952Z,3.62
2019-03-15T17:02:13.336Z,3.35
2019-03-15T17:04:40.622Z,4.15
2019-03-15T17:07:07.961Z,3.25
2019-03-15T17:09:35.319Z,3.50
2019-03-15T17:12:02.681Z,3.50
2019-03-15T17:14:30.037Z,3.35
2019-03-15T17:16:57.370Z,3.58
2019-03-15T17:19:24.761Z,3.27
2019-03-15T17:21:52.114Z,3.25
2019-03-15T17:24:19.397Z,3.65
2019-03-15T17:26:46.773Z,3.45
2019-03-15T17:29:14.054Z,3.40
2019-03-15T17:31:41.353Z,2.85
2019-03-15T17:34:08.717Z,4.30
2019-03-15T17:36:36.010Z,3.77
2019-03-15T17:39:04.677Z,3.50
2019-03-15T17:41:31.958Z,3.80
2019-03-15T17:43:59.244Z,3.47
2019-03-15T17:46:26.727Z,3.42
2019-03-15T17:48:54.055Z,3.65
2019-03-15T17:51:21.390Z,3.77
2019-03-15T17:53:48.720Z,3.50
2019-03-15T17:56:16.016Z,4.08
2019-03-15T17:58:43.386Z,3.22
2019-03-15T18:01:10.753Z,3.20
2019-03-15T18:03:38.087Z,3.75
2019-03-15T18:06:05.822Z,3.70
2019-03-15T18:08:33.125Z,3.77
2019-03-15T18:11:00.431Z,4.00
2019-03-15T18:13:27.813Z,3.72
2019-03-15T18:15:55.195Z,3.98
2019-03-15T18:18:22.541Z,4.00
2019-03-15T18:20:49.862Z,4.08
2019-03-15T18:23:17.425Z,3.95
2019-03-15T18:25:44.693Z,3.87
2019-03-15T18:28:11.978Z,3.87
2019-03-15T18:30:39.267Z,3.58
2019-03-15T18:33:06.545Z,4.50
2019-03-15T18:35:34.370Z,4.78
2019-03-15T18:38:01.946Z,5.20
2019-03-15T18:40:29.349Z,5.70
2019-03-15T18:42:56.704Z,4.83
2019-03-15T18:45:24.014Z,5.28
2019-03-15T18:47:51.298Z,5.30
2019-03-15T18:50:19.993Z,5.50
2019-03-15T18:52:47.339Z,5.25
2019-03-15T18:55:14.630Z,5.15
2019-03-15T18:57:41.994Z,5.28
2019-03-15T19:00:11.129Z,5.40
2019-03-15T19:02:38.469Z,5.85
2019-03-15T19:05:07.139Z,6.35
2019-03-15T19:07:34.470Z,6.83
2019-03-15T19:10:01.966Z,7.05
2019-03-15T19:12:29.322Z,7.08
2019-03-15T19:14:56.609Z,6.92
2019-03-15T19:17:23.905Z,7.00
2019-03-15T19:19:51.243Z,7.30
2019-03-15T19:22:18.527Z,8.00
2019-03-15T19:24:46.051Z,7.72
2019-03-15T19:27:13.359Z,7.30
2019-03-15T19:29:53.060Z,7.90
2019-03-15T19:32:09.983Z,7.60
2019-03-15T19:34:37.357Z,7.78
2019-03-15T19:37:04.666Z,8.13
2019-03-15T19:39:32.036Z,8.08
2019-03-15T19:41:59.340Z,8.20
2019-03-15T19:44:26.720Z,7.85
2019-03-15T19:46:53.999Z,8.13
2019-03-15T19:49:21.367Z,7.92
2019-03-15T19:51:48.762Z,8.50
2019-03-15T19:54:16.077Z,8.60
2019-03-15T19:56:43.556Z,8.78
2019-03-15T19:59:10.966Z,8.45
2019-03-15T20:01:38.280Z,8.23
2019-03-15T20:04:05.648Z,7.28
2019-03-15T20:06:32.994Z,7.42
2019-03-15T20:09:00.309Z,7.80
2019-03-15T20:11:27.592Z,7.65
2019-03-15T20:13:54.874Z,8.00
2019-03-15T20:16:22.153Z,7.25
2019-03-15T20:18:49.437Z,7.05
2019-03-15T20:21:16.770Z,7.25
2019-03-15T20:23:44.141Z,7.53
2019-03-15T20:26:11.516Z,6.92
2019-03-15T20:28:38.818Z,6.95
2019-03-15T20:31:06.182Z,7.30
2019-03-15T20:33:33.492Z,6.53
2019-03-15T20:36:00.783Z,7.08
2019-03-15T20:38:28.144Z,6.10
2019-03-15T20:40:55.422Z,6.42
2019-03-15T20:43:22.714Z,6.53
2019-03-15T20:45:50.230Z,6.78
2019-03-15T20:48:17.586Z,6.12
2019-03-15T20:50:47.079Z,6.58
2019-03-15T20:53:13.946Z,6.85
2019-03-15T20:55:41.398Z,6.95
2019-03-15T20:58:08.960Z,6.37
2019-03-15T21:00:36.461Z,6.55
2019-03-15T21:03:04.176Z,6.30
2019-03-15T21:05:31.482Z,6.25
2019-03-15T21:07:59.887Z,6.17
2019-03-15T21:10:27.379Z,6.17
2019-03-15T21:12:54.758Z,6.58
2019-03-15T21:15:22.175Z,6.42
2019-03-15T21:17:49.462Z,5.72
2019-03-15T21:20:17.291Z,5.87
2019-03-15T21:22:44.680Z,5.97
2019-03-15T21:25:12.033Z,6.33
2019-03-15T21:27:52.582Z,6.20
2019-03-15T21:30:10.275Z,5.78
2019-03-15T21:32:37.652Z,5.85
2019-03-15T21:35:06.435Z,5.83
2019-03-15T21:37:33.726Z,6.12
2019-03-15T21:40:01.141Z,6.12
2019-03-15T21:42:28.509Z,6.50
2019-03-15T21:44:55.799Z,6.28
2019-03-15T21:47:23.087Z,5.95
2019-03-15T21:49:50.392Z,6.50
2019-03-15T21:52:17.758Z,6.50
2019-03-15T21:54:45.127Z,6.67
2019-03-15T21:57:12.606Z,6.42
2019-03-15T21:59:39.897Z,5.95
2019-03-15T22:02:07.242Z,6.50
2019-03-15T22:04:34.527Z,6.33
2019-03-15T22:07:01.839Z,6.20
2019-03-15T22:09:29.120Z,5.67
2019-03-15T22:11:56.402Z,6.35
2019-03-15T22:14:23.690Z,6.00
2019-03-15T22:16:51.042Z,5.87
2019-03-15T22:19:18.336Z,6.10
2019-03-15T22:21:45.700Z,6.08
2019-03-15T22:24:13.010Z,6.10
2019-03-15T22:26:40.298Z,5.62
2019-03-15T22:29:07.691Z,5.42
2019-03-15T22:31:34.966Z,5.97
2019-03-15T22:34:02.285Z,6.80
2019-03-15T22:36:29.652Z,6.37
2019-03-15T22:38:56.939Z,6.08
2019-03-15T22:41:24.213Z,6.75
2019-03-15T22:43:51.485Z,5.90
2019-03-15T22:46:18.851Z,6.55
2019-03-15T22:48:46.175Z,6.12
2019-03-15T22:51:13.536Z,6.03
2019-03-15T22:53:40.828Z,6.10
2019-03-15T22:56:08.112Z,6.45
2019-03-15T22:58:35.408Z,5.62
2019-03-15T23:01:02.861Z,5.95
2019-03-15T23:03:30.220Z,6.15
2019-03-15T23:05:57.576Z,6.00
2019-03-15T23:08:24.927Z,5.83
2019-03-15T23:10:52.249Z,5.95
2019-03-15T23:13:19.874Z,5.87
2019-03-15T23:15:47.149Z,5.55
2019-03-15T23:18:14.471Z,5.40
2019-03-15T23:20:41.820Z,4.08
2019-03-15T23:23:09.097Z,3.65
2019-03-15T23:25:36.462Z,3.75
2019-03-15T23:28:04.142Z,3.30
2019-03-15T23:30:31.524Z,3.22
2019-03-15T23:32:58.809Z,3.27
2019-03-15T23:35:26.162Z,2.45
2019-03-15T23:37:53.485Z,3.02
2019-03-15T23:40:20.753Z,2.60
2019-03-15T23:42:48.044Z,2.37
2019-03-15T23:45:15.369Z,2.42
2019-03-15T23:47:42.716Z,2.42
2019-03-15T23:50:11.065Z,2.85
2019-03-15T23:52:38.371Z,2.58
2019-03-15T23:55:06.496Z,2.35
2019-03-15T23:57:33.819Z,2.25
